Time;durP1;ratioP1;P1;durP2;ratioP2;P2;SDS_P1;SDS_P2;PMS_P1;PMS_P2;Temp;Humidity;BMP_temperature;BMP_pressure;BME280_temperature;BME280_humidity;BME280_pressure;Samples;Min_cycle;Max_cycle;Signal;HPM_P1;HPM_P2
2023/02/13 00:01:37;;;;;;;20.08;9.38;;;2.80;99.90;;;;;;5070498;28;20372;-57
2023/02/13 00:04:03;;;;;;;22.90;11.50;;;2.80;99.90;;;;;;5070873;28;20436;-57
2023/02/13 00:06:29;;;;;;;26.08;11.98;;;2.70;99.90;;;;;;5070769;28;20487;-57
2023/02/13 00:08:55;;;;;;;19.55;10.40;;;4.40;99.90;;;;;;5069977;28;20408;-57
2023/02/13 00:11:20;;;;;;;24.47;11.40;;;2.50;99.90;;;;;;5070903;28;20382;-56
2023/02/13 00:13:46;;;;;;;22.25;10.35;;;3.40;99.90;;;;;;5071846;28;20376;-57
2023/02/13 00:16:12;;;;;;;20.83;10.77;;;3.40;99.90;;;;;;5090873;28;20766;-57
2023/02/13 00:18:38;;;;;;;17.77;9.63;;;2.50;99.90;;;;;;5090337;28;20400;-56
2023/02/13 00:21:05;;;;;;;19.87;10.27;;;2.40;99.90;;;;;;5089636;28;20459;-56
2023/02/13 00:23:33;;;;;;;27.50;11.77;;;2.40;99.90;;;;;;5090777;28;20386;-56
2023/02/13 00:25:59;;;;;;;22.33;11.75;;;2.40;99.90;;;;;;5089595;28;21016;-56
2023/02/13 00:28:25;;;;;;;26.10;11.45;;;2.40;99.90;;;;;;5090711;28;20378;-56
2023/02/13 00:30:51;;;;;;;27.00;12.17;;;2.60;99.90;;;;;;5088722;28;20389;-56
2023/02/13 00:33:16;;;;;;;21.10;10.67;;;2.60;99.90;;;;;;5090790;28;20404;-56
2023/02/13 00:35:42;;;;;;;25.30;11.80;;;2.70;99.90;;;;;;5089689;28;20839;-56
2023/02/13 00:38:07;;;;;;;22.33;11.17;;;2.80;1.00;;;;;;5090745;28;20432;-56
2023/02/13 00:40:33;;;;;;;21.50;10.75;;;2.70;99.90;;;;;;5090526;28;20378;-56
2023/02/13 00:42:59;;;;;;;24.00;11.37;;;2.80;1.00;;;;;;5089655;28;20385;-56
2023/02/13 00:45:24;;;;;;;21.92;10.57;;;2.70;1.00;;;;;;5090442;28;20489;-56
2023/02/13 00:47:50;;;;;;;27.23;11.00;;;2.70;1.00;;;;;;5089876;28;20474;-57
2023/02/13 00:50:16;;;;;;;22.80;10.90;;;2.70;1.00;;;;;;5090096;28;20913;-56
2023/02/13 00:52:41;;;;;;;23.08;10.77;;;2.60;1.00;;;;;;5089414;28;20737;-57
2023/02/13 00:55:07;;;;;;;18.80;9.93;;;2.50;1.00;;;;;;5090200;28;20398;-56
2023/02/13 00:57:33;;;;;;;20.27;9.60;;;4.40;1.00;;;;;;5090054;28;20370;-56
2023/02/13 00:59:58;;;;;;;20.83;9.88;;;2.40;99.90;;;;;;5089477;28;20732;-56
2023/02/13 01:02:24;;;;;;;20.30;10.60;;;2.30;99.90;;;;;;5090144;28;20831;-57
2023/02/13 01:04:50;;;;;;;20.77;10.40;;;2.10;99.90;;;;;;5088981;28;20378;-56
2023/02/13 01:07:15;;;;;;;21.42;10.90;;;1.90;99.90;;;;;;5090022;28;20711;-56
2023/02/13 01:09:41;;;;;;;24.83;10.90;;;1.90;99.90;;;;;;5088843;28;20406;-57
2023/02/13 01:12:07;;;;;;;23.90;10.57;;;1.80;99.90;;;;;;5088301;28;20429;-56
2023/02/13 01:14:32;;;;;;;22.23;12.23;;;1.80;99.90;;;;;;5089456;28;20403;-56
2023/02/13 01:16:58;;;;;;;25.20;11.33;;;3.30;99.90;;;;;;5088293;28;20451;-56
2023/02/13 01:19:24;;;;;;;20.30;10.40;;;1.70;99.90;;;;;;5089852;28;20929;-56
2023/02/13 01:21:49;;;;;;;21.52;11.65;;;1.70;99.90;;;;;;5088435;28;20394;-56
2023/02/13 01:24:15;;;;;;;19.03;9.90;;;1.70;99.90;;;;;;5088769;28;20410;-56
2023/02/13 01:26:40;;;;;;;20.70;10.40;;;1.70;99.90;;;;;;5088598;28;20897;-56
2023/02/13 01:29:06;;;;;;;25.00;10.53;;;1.70;99.90;;;;;;5089414;28;20486;-56
2023/02/13 01:31:32;;;;;;;20.90;10.30;;;1.70;99.90;;;;;;5089640;28;20473;-56
2023/02/13 01:33:59;;;;;;;21.23;10.07;;;2.80;99.90;;;;;;5088460;28;20389;-56
2023/02/13 01:36:25;;;;;;;21.42;10.45;;;1.80;1.00;;;;;;5088993;28;20394;-56
2023/02/13 01:38:56;;;;;;;22.73;10.17;;;1.80;99.90;;;;;;5087215;28;20386;-56
2023/02/13 01:41:22;;;;;;;18.92;9.25;;;1.70;99.90;;;;;;5089722;28;20386;-56
2023/02/13 01:43:54;;;;;;;22.45;10.43;;;2.90;99.90;;;;;;5093121;28;20384;-56
2023/02/13 01:46:41;;;;;;;19.13;9.38;;;1.70;99.90;;;;;;5093223;28;20508;-56
2023/02/13 01:49:10;;;;;;;24.23;10.18;;;1.80;99.90;;;;;;5081129;28;20385;-56
2023/02/13 01:51:37;;;;;;;22.15;10.95;;;1.70;99.90;;;;;;5093201;28;20386;-56
2023/02/13 01:54:12;;;;;;;23.88;10.20;;;1.60;99.90;;;;;;5092769;28;20381;-57
2023/02/13 01:56:41;;;;;;;23.30;10.90;;;1.60;99.90;;;;;;5092649;28;20393;-56
2023/02/13 01:59:14;;;;;;;21.60;10.77;;;1.60;99.90;;;;;;5093078;28;20401;-57
2023/02/13 02:01:39;;;;;;;23.70;11.32;;;1.60;99.90;;;;;;5092123;28;20485;-56
2023/02/13 02:04:23;;;;;;;23.90;11.20;;;1.60;99.90;;;;;;5093297;28;20461;-57
2023/02/13 02:06:53;;;;;;;23.25;10.50;;;1.60;99.90;;;;;;5092039;28;20417;-57
2023/02/13 02:09:24;;;;;;;21.35;9.60;;;1.60;99.90;;;;;;5092711;28;20917;-57
2023/02/13 02:12:00;;;;;;;21.92;10.30;;;1.60;99.90;;;;;;5092344;28;20406;-56
2023/02/13 02:14:26;;;;;;;20.05;9.52;;;3.20;99.90;;;;;;5077468;28;20401;-56
2023/02/13 02:16:52;;;;;;;21.48;10.38;;;1.40;99.90;;;;;;5091760;28;20901;-56
2023/02/13 02:19:54;;;;;;;23.38;10.10;;;1.30;99.90;;;;;;5092690;28;20785;-56
2023/02/13 02:22:57;;;;;;;21.88;10.43;;;1.30;99.90;;;;;;5092902;28;20440;-57
2023/02/13 02:25:44;;;;;;;24.43;10.20;;;1.30;99.90;;;;;;5061644;28;20517;-56
2023/02/13 02:28:51;;;;;;;23.83;10.48;;;1.30;99.90;;;;;;5093053;28;20401;-56
2023/02/13 02:31:53;;;;;;;22.35;10.13;;;1.40;99.90;;;;;;5092341;28;20421;-56
2023/02/13 02:34:56;;;;;;;23.58;11.15;;;1.50;99.90;;;;;;5092443;28;20401;-56
2023/02/13 02:37:36;;;;;;;22.65;11.10;;;1.40;99.90;;;;;;5092324;28;20394;-56
2023/02/13 02:40:39;;;;;;;22.35;10.57;;;1.30;99.90;;;;;;5091796;28;20402;-57
2023/02/13 02:43:36;;;;;;;22.25;10.02;;;1.30;99.90;;;;;;5016032;28;20467;-56
2023/02/13 02:46:15;;;;;;;24.35;10.10;;;1.30;99.90;;;;;;5088037;28;20409;-56
2023/02/13 02:52:10;;;;;;;18.77;9.18;;;1.10;99.90;;;;;;5085593;28;20427;-56
2023/02/13 03:06:09;;;;;;;21.63;10.90;;;1.00;99.90;;;;;;5072341;28;20426;-56
2023/02/13 03:06:12;;;;;;;25.00;10.48;;;1.10;99.90;;;;;;5091490;28;20463;-56
2023/02/13 03:14:12;;;;;;;22.20;10.30;;;1.00;99.90;;;;;;5092371;28;20381;-56
2023/02/13 03:22:28;;;;;;;24.63;10.93;;;1.10;99.90;;;;;;5092053;28;20416;-56
2023/02/13 03:24:59;;;;;;;19.67;9.80;;;1.00;99.90;;;;;;5091037;28;20943;-56
2023/02/13 03:30:51;;;;;;;21.27;9.70;;;0.30;99.90;;;;;;5091928;28;20778;-56
2023/02/13 03:33:59;;;;;;;21.23;10.45;;;1.00;99.90;;;;;;5091587;28;20384;-56
2023/02/13 03:40:00;;;;;;;25.97;10.57;;;1.00;99.90;;;;;;5091605;28;20874;-56
2023/02/13 03:42:36;;;;;;;19.95;9.32;;;1.00;99.90;;;;;;5083294;28;20396;-55
2023/02/13 03:47:59;;;;;;;22.83;10.17;;;1.00;99.90;;;;;;5062657;28;20504;-55
2023/02/13 03:50:27;;;;;;;21.98;10.80;;;1.10;99.90;;;;;;5090978;28;20414;-55
2023/02/13 03:52:54;;;;;;;21.60;10.48;;;1.10;99.90;;;;;;5089973;28;20405;-56
2023/02/13 04:01:29;;;;;;;19.88;10.30;;;0.90;99.90;;;;;;5057707;28;20401;-56
2023/02/13 04:04:26;;;;;;;22.83;9.20;;;0.90;99.90;;;;;;5089732;28;20508;-56
2023/02/13 04:06:57;;;;;;;21.98;10.05;;;1.00;99.90;;;;;;5086942;28;20886;-56
2023/02/13 04:09:25;;;;;;;26.65;10.30;;;0.90;99.90;;;;;;5090167;28;20797;-56
2023/02/13 04:12:08;;;;;;;25.40;10.73;;;0.90;99.90;;;;;;5089606;28;20389;-56
2023/02/13 04:14:51;;;;;;;27.30;10.20;;;0.90;99.90;;;;;;5087536;28;20392;-55
2023/02/13 04:17:30;;;;;;;20.15;9.27;;;0.90;99.90;;;;;;5078181;28;20402;-56
2023/02/13 04:19:56;;;;;;;25.00;11.00;;;0.90;99.90;;;;;;5087914;28;20390;-55
2023/02/13 04:22:21;;;;;;;22.90;9.48;;;2.80;99.90;;;;;;5090142;28;20402;-55
2023/02/13 04:24:47;;;;;;;23.75;10.40;;;0.90;99.90;;;;;;5089163;28;20447;-55
2023/02/13 04:27:16;;;;;;;25.92;11.52;;;1.00;99.90;;;;;;5089974;28;20406;-56
2023/02/13 04:29:42;;;;;;;21.08;9.48;;;1.10;99.90;;;;;;5089249;28;20402;-55
2023/02/13 04:32:09;;;;;;;26.65;10.25;;;1.00;99.90;;;;;;5067244;28;20395;-55
2023/02/13 04:34:35;;;;;;;21.30;9.90;;;2.80;99.90;;;;;;5090346;28;20398;-55
2023/02/13 04:37:00;;;;;;;20.87;10.00;;;0.90;99.90;;;;;;5089342;28;20386;-56
2023/02/13 04:39:26;;;;;;;21.80;10.53;;;0.80;99.90;;;;;;5090444;28;20735;-55
2023/02/13 04:41:53;;;;;;;23.08;10.75;;;0.80;99.90;;;;;;5080947;28;20477;-56
2023/02/13 04:44:18;;;;;;;22.03;9.87;;;0.80;99.90;;;;;;5089632;28;20395;-56
2023/02/13 04:46:44;;;;;;;21.70;9.93;;;0.70;10.20;;;;;;5088868;28;20409;-55
2023/02/13 04:49:10;;;;;;;22.38;10.13;;;0.60;99.90;;;;;;5090086;28;20777;-56
2023/02/13 04:51:36;;;;;;;20.05;9.30;;;0.50;99.90;;;;;;5081460;28;20462;-55
2023/02/13 04:54:01;;;;;;;20.67;9.50;;;0.60;99.90;;;;;;5087355;28;20414;-55
2023/02/13 04:56:27;;;;;;;22.15;9.93;;;0.50;1.00;;;;;;5088279;28;20905;-55
2023/02/13 04:58:54;;;;;;;22.20;10.68;;;0.50;1.00;;;;;;5088904;28;20734;-56
2023/02/13 05:01:20;;;;;;;25.55;10.93;;;0.40;1.00;;;;;;5089689;28;20370;-56
2023/02/13 05:03:46;;;;;;;18.83;9.98;;;0.30;1.00;;;;;;5088190;28;20402;-56
2023/02/13 05:06:13;;;;;;;20.70;10.13;;;0.30;99.90;;;;;;5088948;28;20437;-56
2023/02/13 05:08:39;;;;;;;20.48;9.32;;;0.30;99.90;;;;;;5089337;28;20406;-56
2023/02/13 05:11:05;;;;;;;25.10;11.10;;;1.80;99.90;;;;;;5088015;28;20796;-56
2023/02/13 05:13:31;;;;;;;20.08;9.32;;;0.30;99.90;;;;;;5088940;28;20382;-56
2023/02/13 05:15:57;;;;;;;20.92;9.75;;;0.30;99.90;;;;;;5087920;28;20405;-56
2023/02/13 05:18:22;;;;;;;27.33;10.63;;;0.40;99.90;;;;;;5088809;28;20489;-55
2023/02/13 05:23:21;;;;;;;26.73;11.40;;;0.30;99.90;;;;;;5087883;28;20426;-56
2023/02/13 05:23:33;;;;;;;21.27;10.27;;;0.30;99.90;;;;;;5084545;28;20431;-55
2023/02/13 05:26:00;;;;;;;25.65;10.13;;;2.30;99.90;;;;;;5088218;28;20780;-55
2023/02/13 05:31:13;;;;;;;23.70;11.00;;;0.40;99.90;;;;;;5084639;28;20401;-55
2023/02/13 05:33:38;;;;;;;25.42;12.25;;;0.40;99.90;;;;;;5089033;28;20432;-55
2023/02/13 05:36:04;;;;;;;26.30;11.70;;;0.40;99.90;;;;;;5087609;28;20397;-56
2023/02/13 05:38:30;;;;;;;25.23;12.07;;;0.40;99.90;;;;;;5088774;28;20398;-56
2023/02/13 05:41:05;;;;;;;28.90;12.53;;;0.50;99.90;;;;;;5052615;28;20875;-56
2023/02/13 05:43:39;;;;;;;27.00;12.02;;;0.50;99.90;;;;;;5083454;28;20383;-56
2023/02/13 05:46:07;;;;;;;26.75;11.55;;;0.60;99.90;;;;;;5088372;28;20442;-55
2023/02/13 05:48:32;;;;;;;28.80;12.05;;;0.70;99.90;;;;;;5089582;28;20374;-56
2023/02/13 05:50:58;;;;;;;26.15;11.68;;;0.80;99.90;;;;;;5079975;28;20393;-58
2023/02/13 05:53:24;;;;;;;24.85;12.20;;;0.80;99.90;;;;;;5089238;28;20388;-58
2023/02/13 05:55:53;;;;;;;27.47;12.20;;;0.70;99.90;;;;;;5081224;28;20501;-56
2023/02/13 05:58:19;;;;;;;25.95;12.60;;;2.70;99.90;;;;;;5085284;28;20401;-56
2023/02/13 06:00:45;;;;;;;28.35;11.30;;;0.60;99.90;;;;;;5077396;28;20841;-56
2023/02/13 06:03:11;;;;;;;24.95;11.70;;;0.60;99.90;;;;;;5058902;28;20389;-55
2023/02/13 06:05:37;;;;;;;25.55;12.05;;;0.60;99.90;;;;;;5065448;28;20829;-58
2023/02/13 06:08:03;;;;;;;20.87;10.47;;;0.50;99.90;;;;;;5080391;28;20673;-56
2023/02/13 06:10:28;;;;;;;24.85;11.75;;;0.50;99.90;;;;;;5080871;28;20394;-55
2023/02/13 06:12:55;;;;;;;24.98;10.93;;;0.50;99.90;;;;;;5088016;28;20386;-55
2023/02/13 06:15:21;;;;;;;31.42;12.30;;;0.50;99.90;;;;;;5058150;28;20409;-55
2023/02/13 06:17:47;;;;;;;24.17;10.98;;;0.50;99.90;;;;;;5067546;28;20450;-55
2023/02/13 06:20:13;;;;;;;27.35;11.00;;;0.50;99.90;;;;;;5085603;28;20393;-56
2023/02/13 06:22:40;;;;;;;26.03;11.30;;;0.50;99.90;;;;;;5089674;28;20389;-55
2023/02/13 06:25:05;;;;;;;27.55;12.30;;;0.50;99.90;;;;;;5076702;28;20905;-56
2023/02/13 06:27:34;;;;;;;28.50;12.95;;;0.50;99.90;;;;;;5069038;28;20397;-55
2023/02/13 06:30:04;;;;;;;26.65;12.13;;;0.50;99.90;;;;;;5070743;28;20475;-56
2023/02/13 06:32:30;;;;;;;28.40;12.35;;;0.50;99.90;;;;;;5052744;28;20412;-56
2023/02/13 06:34:57;;;;;;;26.30;12.00;;;1.80;99.90;;;;;;5054076;28;20796;-55
2023/02/13 06:37:30;;;;;;;28.83;13.02;;;0.60;99.90;;;;;;5092676;28;20385;-56
2023/02/13 06:39:57;;;;;;;38.88;16.90;;;0.60;99.90;;;;;;5091931;28;20385;-56
2023/02/13 06:42:22;;;;;;;36.88;17.63;;;0.70;99.90;;;;;;5091319;28;20821;-56
2023/02/13 06:44:48;;;;;;;28.17;13.60;;;0.70;99.90;;;;;;5089098;28;20883;-58
2023/02/13 06:47:13;;;;;;;30.87;15.20;;;0.70;99.90;;;;;;5071799;28;20412;-57
2023/02/13 06:49:39;;;;;;;31.33;13.70;;;0.80;99.90;;;;;;5071924;28;20392;-57
2023/02/13 06:52:05;;;;;;;34.07;16.20;;;0.80;99.90;;;;;;5071704;28;20871;-57
2023/02/13 06:54:30;;;;;;;45.43;18.67;;;0.10;99.90;;;;;;5072420;28;20406;-56
2023/02/13 06:56:56;;;;;;;38.22;15.18;;;0.90;99.90;;;;;;5071664;28;20379;-55
2023/02/13 06:59:22;;;;;;;34.58;17.50;;;0.90;99.90;;;;;;5072497;28;20449;-57
2023/02/13 07:01:47;;;;;;;60.70;23.13;;;1.00;99.90;;;;;;5071707;28;20859;-58
2023/02/13 07:04:13;;;;;;;41.38;17.15;;;1.20;99.90;;;;;;5069132;28;20418;-56
2023/02/13 07:06:38;;;;;;;30.53;14.70;;;1.40;99.90;;;;;;5066844;28;20414;-56
2023/02/13 07:09:04;;;;;;;37.65;18.00;;;1.50;99.90;;;;;;5071793;28;20735;-56
2023/02/13 07:11:30;;;;;;;26.07;13.73;;;1.40;99.90;;;;;;5071987;28;20412;-55
2023/02/13 07:13:56;;;;;;;29.10;13.60;;;1.50;99.90;;;;;;5071038;28;20391;-56
2023/02/13 07:16:23;;;;;;;28.20;13.63;;;1.60;99.90;;;;;;5072093;28;20396;-56
2023/02/13 07:18:49;;;;;;;28.83;13.43;;;1.60;99.90;;;;;;5070936;28;20930;-56
2023/02/13 07:21:16;;;;;;;30.50;13.52;;;1.70;99.90;;;;;;5071777;28;20434;-56
2023/02/13 07:23:42;;;;;;;27.17;12.10;;;1.70;99.90;;;;;;5071504;28;20448;-56
2023/02/13 07:26:09;;;;;;;27.70;11.83;;;1.80;99.90;;;;;;5070462;28;20803;-56
2023/02/13 07:28:35;;;;;;;23.83;11.60;;;1.90;99.90;;;;;;5072453;28;20397;-55
2023/02/13 07:31:04;;;;;;;27.20;12.93;;;1.90;99.90;;;;;;5070804;28;20376;-56
2023/02/13 07:33:31;;;;;;;27.30;12.20;;;2.00;99.90;;;;;;5071428;28;20410;-56
2023/02/13 07:35:56;;;;;;;33.97;13.10;;;2.50;1.00;;;;;;5070838;28;20470;-56
2023/02/13 07:38:22;;;;;;;27.17;13.70;;;3.70;1.00;;;;;;5071446;28;20467;-56
2023/02/13 07:40:47;;;;;;;25.80;12.30;;;4.50;1.00;;;;;;5070594;28;20463;-56
2023/02/13 07:43:13;;;;;;;31.10;13.45;;;5.80;99.90;;;;;;5071527;28;20382;-56
2023/02/13 07:45:38;;;;;;;23.83;10.77;;;6.90;1.00;;;;;;5071697;28;20936;-56
2023/02/13 07:48:04;;;;;;;22.70;10.27;;;7.90;99.90;;;;;;5070282;28;20452;-56
2023/02/13 07:50:30;;;;;;;24.40;11.23;;;9.00;1.00;;;;;;5071318;28;20384;-56
2023/02/13 07:52:57;;;;;;;25.60;11.10;;;9.80;1.00;;;;;;5071057;28;20382;-57
2023/02/13 07:55:23;;;;;;;25.95;11.70;;;10.60;1.00;;;;;;5071241;28;20426;-57
2023/02/13 07:57:49;;;;;;;24.42;11.05;;;11.40;1.00;;;;;;5070245;28;20376;-57
2023/02/13 08:00:15;;;;;;;23.15;11.20;;;11.90;1.00;;;;;;5070958;28;20400;-57
2023/02/13 08:02:41;;;;;;;20.90;11.02;;;12.10;99.90;;;;;;5071130;28;20474;-57
2023/02/13 08:05:09;;;;;;;22.97;11.93;;;;;;;;;;5070713;28;20778;-57
2023/02/13 08:07:35;;;;;;;27.03;13.80;;;;;;;;;;5070621;28;20384;-57
2023/02/13 08:12:45;;;;;;;24.23;17.23;;;14.30;99.90;;;;;;5070445;28;20371;-58
2023/02/13 08:15:14;;;;;;;26.00;19.37;;;14.70;99.90;;;;;;5071292;28;20729;-58
2023/02/13 08:17:39;;;;;;;25.45;19.17;;;15.40;99.90;;;;;;5070780;28;20864;-58
2023/02/13 08:20:08;;;;;;;22.73;18.50;;;15.70;99.90;;;;;;5070016;28;20410;-58
2023/02/13 08:22:35;;;;;;;26.58;20.35;;;15.70;99.90;;;;;;5070701;28;20432;-57
2023/02/13 08:25:01;;;;;;;26.40;18.10;;;15.20;99.90;;;;;;5069801;28;20443;-57
2023/02/13 08:27:29;;;;;;;23.17;17.10;;;14.90;99.90;;;;;;5070657;28;20454;-57
2023/02/13 08:29:55;;;;;;;23.67;18.20;;;14.60;99.90;;;;;;5070100;28;20436;-57
2023/02/13 08:32:22;;;;;;;22.77;16.55;;;14.50;99.90;;;;;;5070449;28;20376;-57
2023/02/13 08:34:48;;;;;;;23.42;17.00;;;14.20;99.90;;;;;;5069735;28;20382;-57
2023/02/13 08:37:13;;;;;;;21.73;15.70;;;14.10;99.90;;;;;;5069603;28;20478;-57
2023/02/13 08:39:39;;;;;;;23.77;16.33;;;14.30;99.90;;;;;;5070154;28;20764;-57
2023/02/13 08:42:04;;;;;;;23.37;16.23;;;14.50;99.90;;;;;;5069665;28;20387;-57
2023/02/13 08:44:30;;;;;;;25.15;15.35;;;13.90;99.90;;;;;;5070023;28;20387;-58
2023/02/13 08:46:56;;;;;;;23.97;15.27;;;13.70;99.90;;;;;;5069885;28;20760;-57
2023/02/13 08:49:22;;;;;;;23.23;15.97;;;13.50;99.90;;;;;;5069849;28;20387;-58
2023/02/13 08:51:51;;;;;;;24.38;16.10;;;14.50;99.90;;;;;;5068828;28;20711;-57
2023/02/13 08:54:16;;;;;;;27.02;15.55;;;15.00;99.90;;;;;;5069796;28;20392;-57
2023/02/13 08:56:42;;;;;;;21.02;15.77;;;15.50;99.90;;;;;;5070188;28;20389;-58
2023/02/13 08:59:09;;;;;;;25.23;19.10;;;16.30;99.90;;;;;;5069492;28;20399;-58
2023/02/13 09:01:35;;;;;;;26.25;19.45;;;16.70;99.90;;;;;;5069986;28;20868;-57
2023/02/13 09:04:00;;;;;;;22.97;18.37;;;16.50;99.90;;;;;;5069097;28;20455;-57
2023/02/13 09:06:26;;;;;;;27.90;18.50;;;16.60;99.90;;;;;;5070037;28;20417;-57
2023/02/13 09:08:52;;;;;;;22.95;17.08;;;15.70;99.90;;;;;;5069246;28;20383;-58
2023/02/13 09:11:18;;;;;;;24.70;15.77;;;14.10;99.90;;;;;;5069770;28;20399;-57
2023/02/13 09:13:44;;;;;;;25.47;15.53;;;13.80;99.90;;;;;;5069596;28;20373;-57
2023/02/13 09:16:10;;;;;;;24.77;15.85;;;13.80;99.90;;;;;;5068789;28;20929;-57
2023/02/13 09:18:35;;;;;;;23.77;15.87;;;14.70;99.90;;;;;;5069643;28;20816;-57
2023/02/13 09:21:04;;;;;;;24.75;15.82;;;15.50;99.90;;;;;;5069105;28;20376;-57
2023/02/13 09:23:31;;;;;;;23.42;15.32;;;16.10;99.90;;;;;;5069464;28;20402;-59
2023/02/13 09:26:02;;;;;;;25.05;17.02;;;16.30;99.90;;;;;;5068609;28;20424;-57
2023/02/13 09:28:29;;;;;;;22.25;15.77;;;16.90;99.90;;;;;;5069396;28;20372;-57
2023/02/13 09:30:55;;;;;;;22.08;15.68;;;16.50;99.90;;;;;;5069507;28;20380;-57
2023/02/13 09:33:20;;;;;;;23.33;15.47;;;16.40;99.90;;;;;;5069542;28;20388;-59
2023/02/13 09:35:46;;;;;;;20.40;14.67;;;15.70;99.90;;;;;;5067874;28;20441;-57
2023/02/13 09:38:11;;;;;;;19.30;14.70;;;15.30;99.90;;;;;;5069156;28;20387;-57
2023/02/13 09:41:06;;;;;;;25.95;15.10;;;15.10;99.90;;;;;;5069443;28;20375;-58
2023/02/13 09:43:36;;;;;;;22.25;14.80;;;15.40;99.90;;;;;;5069330;28;20449;-58
2023/02/13 09:46:39;;;;;;;22.83;15.77;;;15.70;99.90;;;;;;5068722;28;20503;-57
2023/02/13 09:49:11;;;;;;;20.67;15.80;;;15.40;99.90;;;;;;5068414;28;20955;-57
2023/02/13 09:51:37;;;;;;;21.25;14.30;;;15.40;99.90;;;;;;5069278;28;20875;-57
2023/02/13 09:54:06;;;;;;;23.13;14.93;;;15.00;99.90;;;;;;5068688;28;20372;-57
2023/02/13 09:56:40;;;;;;;20.35;13.35;;;14.40;99.90;;;;;;5069666;28;20385;-57
2023/02/13 09:59:32;;;;;;;20.00;13.30;;;14.50;99.90;;;;;;5068575;28;20718;-57
2023/02/13 10:02:07;;;;;;;22.02;13.30;;;14.20;99.90;;;;;;5068406;28;20395;-57
2023/02/13 10:04:51;;;;;;;23.17;13.27;;;14.00;99.90;;;;;;5072326;28;20371;-57
2023/02/13 10:07:43;;;;;;;19.90;11.80;;;13.80;99.90;;;;;;5073202;28;20520;-57
2023/02/13 10:10:23;;;;;;;19.43;12.33;;;14.80;99.90;;;;;;5052299;28;21305;-58
2023/02/13 10:12:56;;;;;;;17.98;12.10;;;14.60;99.90;;;;;;5072724;28;20364;-58
2023/02/13 10:15:40;;;;;;;20.13;12.35;;;15.30;99.90;;;;;;5072960;28;20756;-58
2023/02/13 10:18:15;;;;;;;19.88;11.68;;;15.10;99.90;;;;;;5072363;28;20368;-58
2023/02/13 10:20:47;;;;;;;18.15;11.68;;;15.30;99.90;;;;;;5073017;28;20368;-57
2023/02/13 10:23:27;;;;;;;19.48;12.10;;;15.10;99.90;;;;;;5073390;28;20408;-58
2023/02/13 10:26:03;;;;;;;22.10;13.20;;;14.80;99.90;;;;;;5072005;28;20457;-57
2023/02/13 10:28:45;;;;;;;18.97;13.13;;;14.90;99.90;;;;;;5072983;28;20502;-58
2023/02/13 10:31:21;;;;;;;19.60;12.80;;;15.70;99.90;;;;;;5072528;28;20390;-57
2023/02/13 10:33:50;;;;;;;20.13;14.13;;;16.50;99.90;;;;;;5071902;28;20458;-57
2023/02/13 10:36:24;;;;;;;18.80;13.63;;;16.90;99.90;;;;;;5072742;28;20403;-57
2023/02/13 10:39:04;;;;;;;19.75;13.50;;;16.90;99.90;;;;;;5071454;28;20849;-57
2023/02/13 10:41:36;;;;;;;17.58;14.05;;;17.00;99.90;;;;;;5072517;28;20492;-57
2023/02/13 10:44:11;;;;;;;19.80;13.80;;;16.70;99.90;;;;;;5071642;28;20391;-57
2023/02/13 10:46:55;;;;;;;19.95;15.60;;;17.00;99.90;;;;;;5072855;28;20422;-57
2023/02/13 10:49:20;;;;;;;22.20;15.68;;;17.70;99.90;;;;;;5072869;28;20415;-57
2023/02/13 10:52:31;;;;;;;19.42;15.90;;;17.70;99.90;;;;;;5072450;28;20834;-57
2023/02/13 10:55:19;;;;;;;19.92;15.95;;;17.80;99.90;;;;;;5071407;28;20399;-58
2023/02/13 10:58:11;;;;;;;18.77;14.05;;;17.20;99.90;;;;;;5072348;28;20447;-57
2023/02/13 11:00:43;;;;;;;18.77;14.45;;;16.50;99.90;;;;;;5072292;28;20464;-57
2023/02/13 11:03:19;;;;;;;20.63;15.10;;;16.20;99.90;;;;;;5071082;28;21024;-57
2023/02/13 11:05:45;;;;;;;17.15;13.80;;;16.60;99.90;;;;;;5072236;28;20438;-57
2023/02/13 11:08:33;;;;;;;18.17;14.10;;;16.50;99.90;;;;;;5071295;28;20474;-57
2023/02/13 11:10:58;;;;;;;19.38;15.48;;;17.20;99.90;;;;;;5071654;28;20383;-57
2023/02/13 11:13:27;;;;;;;18.30;14.10;;;17.10;99.90;;;;;;5070586;28;20403;-57
2023/02/13 11:16:06;;;;;;;19.33;15.00;;;17.60;99.90;;;;;;5070532;28;20864;-57
2023/02/13 11:18:35;;;;;;;18.42;15.57;;;17.50;99.90;;;;;;5070262;28;20477;-57
2023/02/13 11:21:09;;;;;;;16.35;13.98;;;17.30;99.90;;;;;;5071167;28;20698;-57
2023/02/13 11:23:42;;;;;;;17.05;14.23;;;16.20;99.90;;;;;;5071846;28;20483;-56
2023/02/13 11:26:20;;;;;;;19.30;13.65;;;16.30;99.90;;;;;;5071029;28;20442;-57
2023/02/13 11:28:55;;;;;;;18.35;14.13;;;16.50;99.90;;;;;;5071744;28;20457;-57
2023/02/13 11:31:35;;;;;;;19.30;15.00;;;16.90;99.90;;;;;;5071652;28;20364;-57
2023/02/13 11:34:23;;;;;;;16.27;13.23;;;16.70;99.90;;;;;;5070520;28;20729;-57
2023/02/13 11:37:11;;;;;;;19.58;12.70;;;16.70;99.90;;;;;;5069980;28;20395;-57
2023/02/13 11:39:38;;;;;;;16.25;12.60;;;16.30;99.90;;;;;;5071255;28;20384;-57
2023/02/13 11:42:15;;;;;;;17.38;12.77;;;15.60;99.90;;;;;;5070432;28;20411;-56
2023/02/13 11:44:43;;;;;;;16.10;12.00;;;14.80;99.90;;;;;;5071445;28;20757;-56
2023/02/13 11:47:09;;;;;;;16.93;11.40;;;14.10;99.90;;;;;;5070612;28;20885;-56
2023/02/13 11:49:38;;;;;;;17.83;11.35;;;13.10;99.90;;;;;;5071145;28;20380;-57
2023/02/13 11:52:09;;;;;;;15.20;10.43;;;13.00;99.90;;;;;;5070457;28;20396;-56
2023/02/13 11:54:43;;;;;;;17.15;9.18;;;12.80;99.90;;;;;;5071304;28;20498;-58
2023/02/13 11:57:21;;;;;;;15.68;9.38;;;12.60;99.90;;;;;;5070249;28;20463;-58
2023/02/13 11:59:49;;;;;;;15.57;9.57;;;12.60;99.90;;;;;;5071019;28;20430;-59
2023/02/13 12:02:25;;;;;;;15.30;8.97;;;12.20;99.90;;;;;;5070685;28;20391;-58
2023/02/13 12:04:54;;;;;;;17.02;9.20;;;12.60;99.90;;;;;;5070646;28;20383;-58
2023/02/13 12:07:26;;;;;;;18.15;9.23;;;12.40;99.90;;;;;;5070928;28;20761;-59
2023/02/13 12:10:00;;;;;;;15.45;11.15;;;11.90;99.90;;;;;;5070498;28;20384;-58
2023/02/13 12:12:41;;;;;;;16.83;10.40;;;11.80;99.90;;;;;;5071284;28;20380;-56
2023/02/13 12:15:21;;;;;;;15.05;6.95;;;11.50;99.90;;;;;;5070027;28;20474;-56
2023/02/13 12:18:13;;;;;;;15.30;7.00;;;11.60;99.90;;;;;;5070823;28;20437;-56
2023/02/13 12:20:47;;;;;;;14.50;7.32;;;11.80;99.90;;;;;;5070214;28;20376;-56
2023/02/13 12:23:45;;;;;;;14.68;7.40;;;12.80;99.90;;;;;;5070928;28;20386;-56
2023/02/13 12:26:28;;;;;;;16.13;7.40;;;11.80;99.90;;;;;;5068112;28;20462;-56
2023/02/13 12:29:21;;;;;;;14.55;8.02;;;11.80;99.90;;;;;;5070980;28;20378;-56
2023/02/13 12:32:02;;;;;;;16.88;8.38;;;11.70;99.90;;;;;;5070731;28;20403;-56
2023/02/13 12:35:06;;;;;;;16.97;7.77;;;11.80;99.90;;;;;;5068972;28;20384;-56
2023/02/13 12:37:44;;;;;;;14.80;7.50;;;12.20;99.90;;;;;;5070500;28;20391;-56
2023/02/13 12:40:34;;;;;;;15.80;7.65;;;11.90;99.90;;;;;;5069616;28;20403;-57
2023/02/13 12:43:14;;;;;;;17.08;8.50;;;11.70;99.90;;;;;;5069318;28;20749;-56
2023/02/13 12:46:13;;;;;;;15.70;7.00;;;11.60;99.90;;;;;;5070745;28;20408;-58
2023/02/13 12:49:14;;;;;;;16.77;7.78;;;11.70;99.90;;;;;;5070386;28;20475;-56
2023/02/13 12:52:02;;;;;;;16.27;7.60;;;11.50;99.90;;;;;;5070364;28;20384;-56
2023/02/13 12:54:40;;;;;;;14.23;6.70;;;11.40;99.90;;;;;;5070221;28;20428;-56
2023/02/13 12:57:41;;;;;;;16.80;8.27;;;11.30;99.90;;;;;;5069729;28;20434;-56
2023/02/13 13:00:38;;;;;;;13.48;6.85;;;11.20;99.90;;;;;;5053144;28;20557;-56
2023/02/13 13:03:24;;;;;;;18.48;8.00;;;11.60;99.90;;;;;;5069506;28;20376;-56
2023/02/13 13:06:25;;;;;;;16.35;7.35;;;12.10;99.90;;;;;;5069181;28;20414;-55
2023/02/13 13:09:07;;;;;;;14.80;7.20;;;12.10;99.90;;;;;;5061690;28;20441;-58
2023/02/13 13:11:41;;;;;;;18.50;9.23;;;12.20;99.90;;;;;;5069706;28;20383;-58
2023/02/13 13:14:31;;;;;;;17.75;7.85;;;12.30;99.90;;;;;;5069114;28;20705;-59
2023/02/13 13:17:03;;;;;;;14.60;6.65;;;12.30;99.90;;;;;;5069354;28;20523;-59
2023/02/13 13:19:37;;;;;;;15.95;8.13;;;12.50;99.90;;;;;;5069858;28;20396;-59
2023/02/13 13:22:26;;;;;;;14.27;7.30;;;12.70;99.90;;;;;;5068973;28;20399;-59
2023/02/13 13:25:03;;;;;;;17.55;7.57;;;12.70;99.90;;;;;;5068491;28;20951;-59
2023/02/13 13:27:35;;;;;;;17.35;8.98;;;12.50;99.90;;;;;;5069331;28;20445;-59
2023/02/13 13:30:18;;;;;;;17.40;8.90;;;12.20;99.90;;;;;;5068894;28;20917;-58
2023/02/13 13:32:47;;;;;;;15.60;7.43;;;12.40;99.90;;;;;;5069421;28;20745;-58
2023/02/13 13:35:17;;;;;;;14.60;8.30;;;12.50;99.90;;;;;;5069586;28;20852;-59
2023/02/13 13:38:07;;;;;;;19.63;8.20;;;12.60;99.90;;;;;;5069504;28;20916;-59
2023/02/13 13:40:49;;;;;;;16.48;7.82;;;12.70;99.90;;;;;;5069630;28;20412;-59
2023/02/13 13:43:30;;;;;;;17.10;7.67;;;12.70;99.90;;;;;;5069119;28;20892;-58
2023/02/13 13:46:20;;;;;;;14.02;7.07;;;12.70;99.90;;;;;;5068833;28;20416;-59